Townsend, TN

2:22 AM EST on December 18, 2014 (GMT -0500)
Andrews | Change Station
CLOSE
Current Station
Airport
Location: Andrews,
Elevation: 1696 ft
Nearby Weather Stations

Elev 1696 ft 35.20 °N, 83.86 °W | Updated 27 minutes ago

Mostly Cloudy
Mostly Cloudy
32 °F
Feels Like 32 °F
N
0
Wind Variable Wind from North

Today
High -- | Low -- °F
--% Chance of Precip.
Yesterday
High -- | Low -- °F
Precip. -- in
7:39 AM 5:24 PM
Waning Crescent, 16% visible
Pressure 30.16 in
Visibility 0.5 miles
Clouds Overcast 300 ft
Dew Point 32 °F
Humidity 100%
Rainfall 0.00 in
Snow Depth Not available.
UV 0 out of 12
Pollen .40 out of 12
Air Quality Not available.
Flu Activity Not available.
METAR KRHP 180655Z AUTO 00000KT 1/2SM FG OVC003 00/00 A3016 RMK AO2 T00000000

More Conditions Fewer Conditions

Pressure 30.16 in
Visibility 0.5 miles
Clouds Overcast 300 ft
Dew Point 32 °F
Humidity 100%
Rainfall 0.00 in
Snow Depth Not available.
UV 0 out of 12
Pollen .40 out of 12
Air Quality Not available.
Flu Activity Not available.
METAR KRHP 180655Z AUTO 00000KT 1/2SM FG OVC003 00/00 A3016 RMK AO2 T00000000

More Conditions Fewer Conditions

10-Day Weather Forecast

Almanac

Astronomy

Dec. 18, 2014 Rise Set
Actual Time
Civil Twilight
Nautical Twilight
Astronomical Twilight
Moon
Length of Visible Light
Length of Day
Tomorrow will be .
, % of the Moon is Illuminated

Today's Extremes

State Highs State Lows

Community

WunderPhotos

Upload Photos

1,778,900 photos uploaded!

WunderBlogs® & News

Nearby

Air Quality

  Air Quality AQ Index Pollutant
Not available.

Snow Depth

Station Depth Elevation

Earthquake Activity

City Distance Mag. Time & Date
Minimum magnitude displayed is 2.5.

Coastal Water Temperatures

Place Temperature

Nearby Weather Stations